createdAt,value
2022-10-30T00:09:25.110Z,23.20
2022-10-30T02:46:14.677Z,24.67
2022-10-30T02:51:34.594Z,29.15
2022-10-30T05:27:23.364Z,2.30
2022-10-30T07:40:38.183Z,7.38
2022-10-30T07:43:07.056Z,11.00
2022-10-30T07:45:35.449Z,10.00
2022-10-30T07:48:04.026Z,8.70
2022-10-30T07:50:34.121Z,7.80
2022-10-30T07:53:05.407Z,7.15
2022-10-30T07:55:33.913Z,8.13
2022-10-30T07:58:03.961Z,10.77
2022-10-30T08:00:33.528Z,9.80
2022-10-30T08:03:03.614Z,6.97
2022-10-30T08:05:32.143Z,6.15
2022-10-30T08:08:01.009Z,9.25
2022-10-30T08:10:29.777Z,6.28
2022-10-30T08:12:59.158Z,8.13
2022-10-30T08:15:29.415Z,12.82
2022-10-30T08:17:58.574Z,10.15
2022-10-30T08:20:28.027Z,4.80
2022-10-30T08:22:58.330Z,10.23
2022-10-30T08:25:29.335Z,8.95
2022-10-30T08:28:00.084Z,7.93
2022-10-30T08:30:31.586Z,14.10
2022-10-30T08:33:00.724Z,13.73
2022-10-30T08:35:29.501Z,11.90
2022-10-30T08:37:58.400Z,9.75
2022-10-30T08:40:28.412Z,11.05
2022-10-30T08:42:59.140Z,12.57
2022-10-30T08:45:30.949Z,11.77
2022-10-30T08:48:03.587Z,13.60
2022-10-30T08:50:32.253Z,9.80
2022-10-30T08:53:03.659Z,15.63
2022-10-30T08:55:32.767Z,11.80
2022-10-30T08:58:01.524Z,13.52
2022-10-30T09:00:30.605Z,10.38
2022-10-30T09:03:01.171Z,9.25
2022-10-30T09:05:30.008Z,11.45
2022-10-30T09:08:02.815Z,11.80
2022-10-30T09:10:32.406Z,11.85
2022-10-30T09:13:02.678Z,9.27
2022-10-30T09:15:31.465Z,14.98
2022-10-30T09:18:04.062Z,10.05
2022-10-30T09:20:33.270Z,16.23
2022-10-30T09:23:02.769Z,12.32
2022-10-30T09:25:32.404Z,14.20
2022-10-30T09:28:01.036Z,11.15
2022-10-30T09:30:29.819Z,11.35
2022-10-30T09:33:02.996Z,11.77
2022-10-30T09:35:32.651Z,14.98
2022-10-30T09:38:01.518Z,8.65
2022-10-30T09:40:43.776Z,12.45
2022-10-30T09:43:25.042Z,9.15
2022-10-30T09:46:29.558Z,13.05
2022-10-30T09:49:21.943Z,12.45
2022-10-30T09:52:07.856Z,13.48
2022-10-30T09:55:03.494Z,10.45
2022-10-30T09:57:49.438Z,11.48
2022-10-30T10:00:22.935Z,7.90
2022-10-30T10:03:05.713Z,12.45
2022-10-30T10:05:46.047Z,11.90
2022-10-30T10:08:24.108Z,9.77
2022-10-30T10:10:57.013Z,10.65
2022-10-30T10:13:35.025Z,11.40
2022-10-30T10:16:15.184Z,7.05
2022-10-30T10:18:48.620Z,12.55
2022-10-30T10:21:29.452Z,8.40
2022-10-30T10:26:51.377Z,15.18
2022-10-30T10:29:42.250Z,13.05
2022-10-30T10:32:42.838Z,9.18
2022-10-30T10:35:38.409Z,10.80
2022-10-30T10:38:19.465Z,10.38
2022-10-30T10:40:56.307Z,9.45
2022-10-30T10:43:39.468Z,12.55
2022-10-30T10:46:28.404Z,14.35
2022-10-30T10:49:12.476Z,7.97
2022-10-30T10:51:45.835Z,7.95
2022-10-30T10:54:21.143Z,12.05
2022-10-30T10:56:52.810Z,12.02
2022-10-30T10:59:36.130Z,9.98
2022-10-30T11:02:26.548Z,12.82
2022-10-30T11:05:01.178Z,11.48
2022-10-30T11:07:33.769Z,9.30
2022-10-30T11:10:04.347Z,8.18
2022-10-30T11:12:37.755Z,11.93
2022-10-30T11:15:20.325Z,11.27
2022-10-30T11:17:57.729Z,8.45
2022-10-30T11:20:37.609Z,7.93
2022-10-30T11:23:34.483Z,8.18
2022-10-30T11:26:26.924Z,11.30
2022-10-30T11:28:58.033Z,8.63
2022-10-30T11:31:38.345Z,11.77
2022-10-30T11:34:35.433Z,9.15
2022-10-30T11:37:06.051Z,6.40
2022-10-30T11:39:38.197Z,12.05
2022-10-30T11:42:16.627Z,11.43
2022-10-30T11:44:50.677Z,11.32
2022-10-30T11:47:23.929Z,10.95
2022-10-30T11:49:56.632Z,14.90
2022-10-30T11:52:28.034Z,9.80
2022-10-30T11:55:00.105Z,10.70
2022-10-30T11:57:36.866Z,13.55
2022-10-30T12:00:09.804Z,12.68
2022-10-30T12:02:44.786Z,10.18
2022-10-30T12:05:34.551Z,9.38
2022-10-30T12:08:22.963Z,9.23
2022-10-30T12:11:02.236Z,8.15
2022-10-30T12:13:38.233Z,10.13
2022-10-30T12:16:15.483Z,8.85
2022-10-30T12:18:54.655Z,8.63
2022-10-30T12:21:23.172Z,9.15
2022-10-30T12:24:00.262Z,7.97
2022-10-30T12:26:31.051Z,7.25
2022-10-30T12:29:02.857Z,9.50
2022-10-30T12:31:39.025Z,7.53
2022-10-30T12:34:30.204Z,8.30
2022-10-30T12:37:05.294Z,7.15
2022-10-30T12:39:51.730Z,9.93
2022-10-30T12:42:23.271Z,9.52
2022-10-30T12:45:04.449Z,6.72
2022-10-30T12:47:42.480Z,7.03
2022-10-30T12:50:20.486Z,6.05
2022-10-30T12:52:58.334Z,8.30
2022-10-30T12:55:33.684Z,8.27
2022-10-30T12:58:10.829Z,10.13
2022-10-30T13:00:50.065Z,6.68
2022-10-30T13:03:29.089Z,6.30
2022-10-30T13:06:03.052Z,6.47
2022-10-30T13:08:37.233Z,8.95
2022-10-30T13:11:13.570Z,5.50
2022-10-30T13:13:45.188Z,6.22
2022-10-30T13:16:19.672Z,8.68
2022-10-30T13:18:48.831Z,6.55
2022-10-30T13:21:25.923Z,8.27
2022-10-30T13:24:00.057Z,7.03
2022-10-30T13:26:37.779Z,7.30
2022-10-30T13:29:17.363Z,8.32
2022-10-30T13:32:01.634Z,9.43
2022-10-30T13:34:41.503Z,7.38
2022-10-30T13:37:23.575Z,6.75
2022-10-30T13:40:06.504Z,8.52
2022-10-30T13:42:48.155Z,10.73
2022-10-30T13:45:40.937Z,11.57
2022-10-30T13:48:20.718Z,8.52
2022-10-30T13:51:13.689Z,9.05
2022-10-30T13:53:46.496Z,10.18
2022-10-30T13:56:19.938Z,8.57
2022-10-30T13:59:00.598Z,7.25
2022-10-30T14:01:37.444Z,9.82
2022-10-30T14:04:15.352Z,6.05
2022-10-30T14:06:54.033Z,8.35
2022-10-30T14:09:31.875Z,10.52
2022-10-30T14:12:03.835Z,8.63
2022-10-30T14:14:33.720Z,7.43
2022-10-30T14:17:14.071Z,6.85
2022-10-30T14:20:28.274Z,10.07
2022-10-30T14:23:09.600Z,4.97
2022-10-30T14:25:38.417Z,4.65
2022-10-30T14:28:21.621Z,8.55
2022-10-30T14:31:02.764Z,7.38
2022-10-30T14:33:47.039Z,7.10
2022-10-30T14:36:25.926Z,6.25
2022-10-30T14:39:03.151Z,5.68
2022-10-30T14:41:46.632Z,4.28
2022-10-30T14:44:37.400Z,3.85
2022-10-30T14:47:25.837Z,3.05
2022-10-30T14:49:59.803Z,5.65
2022-10-30T14:52:47.669Z,3.67
2022-10-30T14:55:33.098Z,3.42
2022-10-30T14:58:27.132Z,3.35
2022-10-30T15:01:29.495Z,3.97
2022-10-30T15:04:09.414Z,5.07
2022-10-30T15:06:50.477Z,4.50
2022-10-30T15:09:29.305Z,6.35
2022-10-30T15:12:13.259Z,4.68
2022-10-30T15:14:59.462Z,4.88
2022-10-30T15:17:34.985Z,5.38
2022-10-30T15:20:07.589Z,7.20
2022-10-30T15:22:37.264Z,3.13
2022-10-30T15:25:16.768Z,4.45
2022-10-30T15:27:47.753Z,3.97
2022-10-30T15:30:19.983Z,4.32
2022-10-30T15:32:48.414Z,3.85
2022-10-30T15:35:20.136Z,6.25
2022-10-30T15:38:03.430Z,5.15
2022-10-30T15:40:36.335Z,6.13
2022-10-30T15:43:06.878Z,3.58
2022-10-30T15:45:38.205Z,5.35
2022-10-30T15:48:10.932Z,6.78
2022-10-30T15:50:42.943Z,8.98
2022-10-30T15:53:20.054Z,9.93
2022-10-30T15:55:50.910Z,7.13
2022-10-30T15:58:24.183Z,6.85
2022-10-30T16:01:00.795Z,5.03
2022-10-30T16:03:30.073Z,6.95
2022-10-30T16:06:15.704Z,9.60
2022-10-30T16:08:45.964Z,8.23
2022-10-30T16:11:17.749Z,4.70
2022-10-30T16:13:46.367Z,5.35
2022-10-30T16:16:21.817Z,6.30
2022-10-30T16:18:50.925Z,9.60
2022-10-30T16:21:22.737Z,5.78
2022-10-30T16:23:54.293Z,6.90
2022-10-30T16:26:30.357Z,9.00
2022-10-30T16:29:00.364Z,7.70
2022-10-30T16:31:34.595Z,9.77
2022-10-30T16:34:04.572Z,8.23
2022-10-30T16:36:34.454Z,9.27
2022-10-30T16:39:04.915Z,9.77
2022-10-30T16:41:35.379Z,10.45
2022-10-30T16:44:17.222Z,16.25
2022-10-30T16:46:51.026Z,7.47
2022-10-30T16:49:24.892Z,6.63
2022-10-30T16:52:00.673Z,10.50
2022-10-30T16:54:34.350Z,11.32
2022-10-30T16:57:09.230Z,12.05
2022-10-30T16:59:40.528Z,9.43
2022-10-30T17:02:18.837Z,11.57
2022-10-30T17:04:52.569Z,12.90
2022-10-30T17:07:28.072Z,10.57
2022-10-30T17:09:58.738Z,9.90
2022-10-30T17:12:30.294Z,12.90
2022-10-30T17:15:12.923Z,12.40
2022-10-30T17:17:43.184Z,13.32
2022-10-30T17:20:29.999Z,17.35
2022-10-30T17:23:08.862Z,12.75
2022-10-30T17:25:39.698Z,12.80
2022-10-30T17:28:26.214Z,22.27
2022-10-30T17:30:55.276Z,14.85
2022-10-30T17:33:35.409Z,17.35
2022-10-30T17:36:05.041Z,15.68
2022-10-30T17:38:34.013Z,23.73
2022-10-30T17:41:03.722Z,11.07
2022-10-30T17:43:49.200Z,16.25
2022-10-30T17:46:20.370Z,16.67
2022-10-30T17:48:49.528Z,21.98
2022-10-30T17:51:19.151Z,19.52
2022-10-30T17:53:48.943Z,19.80
2022-10-30T17:56:21.185Z,19.50
2022-10-30T17:58:50.950Z,15.82
2022-10-30T18:01:22.762Z,19.60
2022-10-30T18:03:51.473Z,22.38
2022-10-30T18:06:22.944Z,18.08
2022-10-30T18:08:51.285Z,21.42
2022-10-30T18:11:22.521Z,15.65
2022-10-30T18:13:57.851Z,20.77
2022-10-30T18:16:26.243Z,20.55
2022-10-30T18:18:55.237Z,19.27
2022-10-30T18:21:27.895Z,14.88
2022-10-30T18:23:57.411Z,22.30
2022-10-30T18:26:28.615Z,20.00
2022-10-30T18:28:58.910Z,16.17
2022-10-30T18:31:27.419Z,17.27
2022-10-30T18:33:57.029Z,19.33
2022-10-30T18:36:27.070Z,17.25
2022-10-30T18:38:58.947Z,20.58
2022-10-30T18:41:30.594Z,22.20
2022-10-30T18:44:01.548Z,21.38
2022-10-30T18:46:31.235Z,16.60
2022-10-30T18:49:00.400Z,18.33
2022-10-30T18:51:31.086Z,19.25
2022-10-30T18:54:00.893Z,18.38
2022-10-30T18:56:32.619Z,24.00
2022-10-30T18:59:02.907Z,24.70
2022-10-30T19:01:33.668Z,22.90
2022-10-30T19:04:04.610Z,29.58
2022-10-30T19:06:34.946Z,23.70
2022-10-30T19:09:04.001Z,21.85
2022-10-30T19:11:37.277Z,25.98
2022-10-30T19:14:13.789Z,21.52
2022-10-30T19:16:42.627Z,27.35
2022-10-30T19:19:11.133Z,23.27
2022-10-30T19:21:39.925Z,21.65
2022-10-30T19:24:14.007Z,25.25
2022-10-30T19:26:42.829Z,25.95
2022-10-30T19:29:14.733Z,21.17
2022-10-30T19:31:44.397Z,23.83
2022-10-30T19:34:13.713Z,22.13
2022-10-30T19:36:42.341Z,27.73
2022-10-30T19:39:14.303Z,19.63
2022-10-30T19:41:42.735Z,20.08
2022-10-30T19:44:11.501Z,22.15
2022-10-30T19:46:41.462Z,22.70
2022-10-30T19:49:18.807Z,21.23
2022-10-30T19:51:48.779Z,19.42
2022-10-30T19:54:19.231Z,19.55
2022-10-30T19:56:53.896Z,19.13
2022-10-30T19:59:22.479Z,22.95
2022-10-30T20:01:53.504Z,19.52
2022-10-30T20:04:22.351Z,15.02
2022-10-30T20:06:50.769Z,16.90
2022-10-30T20:09:25.868Z,25.67
2022-10-30T20:11:55.546Z,27.33
2022-10-30T20:14:24.570Z,31.92
2022-10-30T20:16:54.679Z,32.47
2022-10-30T20:19:30.122Z,28.75
2022-10-30T20:21:59.935Z,18.98
2022-10-30T20:24:29.530Z,26.17
2022-10-30T20:26:59.579Z,29.33
2022-10-30T20:29:29.995Z,22.90
2022-10-30T20:32:01.138Z,24.00
2022-10-30T20:34:29.389Z,21.75
2022-10-30T20:36:57.932Z,18.42
2022-10-30T20:39:26.337Z,22.25
2022-10-30T20:41:55.160Z,21.90
2022-10-30T20:44:26.368Z,21.73
2022-10-30T20:46:54.854Z,18.08
2022-10-30T20:49:25.196Z,18.88
2022-10-30T20:51:53.828Z,21.27
2022-10-30T20:54:23.590Z,20.90
2022-10-30T20:56:51.893Z,22.77
2022-10-30T20:59:22.108Z,16.27
2022-10-30T21:01:58.058Z,22.42
2022-10-30T21:04:29.720Z,18.73
2022-10-30T21:06:58.572Z,22.55
2022-10-30T21:09:27.171Z,19.85
2022-10-30T21:11:55.716Z,24.83
2022-10-30T21:14:24.746Z,17.95
2022-10-30T21:16:53.330Z,23.08
2022-10-30T21:19:22.359Z,22.85
2022-10-30T21:21:52.393Z,21.30
2022-10-30T21:24:21.139Z,22.50
2022-10-30T21:26:49.554Z,20.52
2022-10-30T21:29:18.318Z,23.67
2022-10-30T21:31:47.399Z,19.83
2022-10-30T21:34:16.270Z,17.85
2022-10-30T21:36:45.163Z,19.30
2022-10-30T21:39:15.608Z,16.92
2022-10-30T21:41:44.403Z,23.75
2022-10-30T21:44:12.871Z,23.58
2022-10-30T21:46:41.250Z,20.25
2022-10-30T21:49:15.058Z,19.73
2022-10-30T21:51:43.569Z,18.58
2022-10-30T21:54:11.844Z,20.95
2022-10-30T21:56:41.806Z,17.35
2022-10-30T21:59:11.957Z,19.40
2022-10-30T22:01:42.434Z,27.15
2022-10-30T22:04:12.663Z,21.17
2022-10-30T22:06:42.798Z,39.30
2022-10-30T22:09:11.785Z,98.78
2022-10-30T22:11:41.938Z,50.97
2022-10-30T22:14:10.899Z,24.10
2022-10-30T22:16:40.870Z,45.70
2022-10-30T22:19:11.372Z,51.65
2022-10-30T22:21:40.663Z,19.67
2022-10-30T22:24:09.670Z,12.55
2022-10-30T22:26:38.039Z,18.55
2022-10-30T22:29:08.360Z,14.98
2022-10-30T22:31:37.075Z,32.55
2022-10-30T22:34:08.189Z,50.60
2022-10-30T22:36:37.039Z,33.90
2022-10-30T22:39:07.575Z,15.73
2022-10-30T22:41:38.259Z,13.82
2022-10-30T22:44:09.963Z,17.33
2022-10-30T22:46:38.743Z,16.40
2022-10-30T22:49:08.379Z,15.82
2022-10-30T22:51:38.810Z,11.93
2022-10-30T22:54:09.476Z,13.45
2022-10-30T22:56:38.855Z,10.73
2022-10-30T22:59:12.327Z,13.20
2022-10-30T23:01:43.072Z,16.33
2022-10-30T23:04:14.112Z,12.38
2022-10-30T23:06:43.368Z,13.23
2022-10-30T23:09:18.013Z,18.38
2022-10-30T23:11:46.608Z,12.45
2022-10-30T23:14:19.434Z,10.88
2022-10-30T23:16:48.987Z,12.38
2022-10-30T23:19:17.597Z,12.48
2022-10-30T23:21:46.342Z,13.82
2022-10-30T23:24:15.683Z,14.73
2022-10-30T23:26:44.175Z,10.40
2022-10-30T23:29:12.910Z,14.45
2022-10-30T23:31:44.213Z,13.98
2022-10-30T23:34:15.861Z,12.90
2022-10-30T23:36:45.377Z,17.08
2022-10-30T23:39:16.780Z,12.38
2022-10-30T23:41:47.437Z,14.10
2022-10-30T23:44:17.235Z,13.63
2022-10-30T23:46:46.963Z,15.35
2022-10-30T23:49:15.703Z,19.92
2022-10-30T23:51:44.433Z,10.77
2022-10-30T23:54:13.375Z,14.88
2022-10-30T23:56:41.961Z,16.00
2022-10-30T23:59:11.196Z,17.38
